Time;durP1;ratioP1;P1;durP2;ratioP2;P2;SDS_P1;SDS_P2;PMS_P1;PMS_P2;Temp;Humidity;BMP_temperature;BMP_pressure;BME280_temperature;BME280_humidity;BME280_pressure;Samples;Min_cycle;Max_cycle;Signal;HPM_P1;HPM_P2
2022/04/30 00:00:58;;;;;;;4.78;4.38;;;;;;;;;;5038734;28;20052;-65
2022/04/30 00:03:28;;;;;;;5.63;4.78;;;;;;;;;;5031828;28;20095;-65
2022/04/30 00:05:57;;;;;;;9.23;5.45;;;;;;;;;;5033615;28;20465;-65
2022/04/30 00:08:26;;;;;;;6.22;5.35;;;;;;;;;;5031656;28;20041;-65
2022/04/30 00:10:55;;;;;;;5.55;5.05;;;;;;;;;;5025831;28;20045;-64
2022/04/30 00:13:24;;;;;;;5.30;4.80;;;;;;;;;;5035368;28;20079;-64
2022/04/30 00:15:52;;;;;;;8.93;6.00;;;;;;;;;;5039374;28;20041;-64
2022/04/30 00:18:21;;;;;;;4.88;4.38;;;;;;;;;;5032014;28;20458;-64
2022/04/30 00:20:49;;;;;;;9.45;4.20;;;;;;;;;;5035620;28;20484;-65
2022/04/30 00:23:20;;;;;;;5.43;4.93;;;;;;;;;;5026049;28;20091;-64
2022/04/30 00:25:55;;;;;;;10.57;5.10;;;;;;;;;;5029745;28;20574;-64
2022/04/30 00:28:25;;;;;;;4.25;3.85;;;;;;;;;;5028355;28;20050;-63
2022/04/30 00:30:55;;;;;;;4.88;4.00;;;;;;;;;;5026281;28;20405;-65
2022/04/30 00:33:23;;;;;;;5.13;4.40;;;;;;;;;;5037048;28;20053;-64
2022/04/30 00:35:52;;;;;;;4.30;3.90;;;;;;;;;;5029342;28;20042;-64
2022/04/30 00:38:20;;;;;;;5.55;4.25;;;;;;;;;;5039113;28;20128;-65
2022/04/30 00:40:49;;;;;;;13.02;5.25;;;;;;;;;;5041418;28;20060;-65
2022/04/30 00:43:19;;;;;;;6.00;4.45;;;;;;;;;;5035097;28;20049;-65
2022/04/30 00:45:48;;;;;;;5.32;4.07;;;;;;;;;;5031026;28;20049;-65
2022/04/30 00:48:17;;;;;;;6.10;4.47;;;;;;;;;;5034867;28;20049;-65
2022/04/30 00:50:48;;;;;;;7.47;4.72;;;;;;;;;;5036718;28;20045;-66
2022/04/30 00:53:19;;;;;;;8.95;6.90;;;;;;;;;;5029887;28;20072;-66
2022/04/30 00:55:50;;;;;;;4.88;4.18;;;;;;;;;;5029133;28;20577;-66
2022/04/30 00:58:22;;;;;;;10.18;4.50;;;;;;;;;;5035444;28;20119;-65
2022/04/30 01:00:51;;;;;;;4.78;4.18;;;;;;;;;;5031980;28;20474;-65
2022/04/30 01:03:31;;;;;;;5.50;4.05;;;;;;;;;;5029920;28;20136;-65
2022/04/30 01:06:06;;;;;;;8.60;4.25;;;;;;;;;;5031396;28;20054;-65
2022/04/30 01:08:40;;;;;;;5.30;4.80;;;;;;;;;;5033858;28;20061;-65
2022/04/30 01:11:10;;;;;;;5.00;4.38;;;;;;;;;;5036941;28;20556;-65
2022/04/30 01:13:43;;;;;;;4.60;4.20;;;;;;;;;;5035078;28;20045;-65
2022/04/30 01:16:14;;;;;;;5.97;4.07;;;;;;;;;;5026744;28;20057;-65
2022/04/30 01:18:43;;;;;;;20.05;4.78;;;;;;;;;;5034218;28;20501;-65
2022/04/30 01:21:16;;;;;;;5.93;3.72;;;;;;;;;;5051136;28;20094;-65
2022/04/30 01:23:48;;;;;;;4.55;4.10;;;;;;;;;;5032367;28;20084;-65
2022/04/30 01:26:19;;;;;;;5.15;4.40;;;;;;;;;;5028538;28;20042;-65
2022/04/30 01:28:47;;;;;;;4.75;3.53;;;;;;;;;;5031526;28;20045;-64
2022/04/30 01:39:52;;;;;;;5.68;4.90;;;;;;;;;;5025425;28;20053;-64
2022/04/30 01:42:23;;;;;;;6.00;4.07;;;;;;;;;;5034531;28;20045;-63
2022/04/30 01:44:51;;;;;;;6.68;4.60;;;;;;;;;;5037032;28;20455;-64
2022/04/30 01:47:24;;;;;;;4.57;4.18;;;;;;;;;;5024720;28;20053;-63
2022/04/30 01:49:55;;;;;;;6.70;4.70;;;;;;;;;;5028096;28;20072;-64
2022/04/30 01:52:23;;;;;;;4.88;4.47;;;;;;;;;;5034302;28;20057;-63
2022/04/30 01:54:52;;;;;;;5.80;4.75;;;;;;;;;;5033597;28;20133;-64
2022/04/30 01:57:23;;;;;;;5.88;4.32;;;;;;;;;;5028509;28;20056;-63
2022/04/30 02:00:15;;;;;;;9.43;5.00;;;;;;;;;;5039768;28;20062;-64
2022/04/30 02:02:49;;;;;;;4.45;4.05;;;;;;;;;;5033233;28;20416;-64
2022/04/30 02:05:22;;;;;;;8.07;4.45;;;;;;;;;;5037122;28;20507;-63
2022/04/30 02:07:54;;;;;;;;;;;;;;;;;;5029732;28;20053;-63
2022/04/30 02:10:24;;;;;;;8.00;5.20;;;;;;;;;;5053929;28;20000;-64
2022/04/30 02:12:54;;;;;;;4.82;4.32;;;;;;;;;;5032139;28;20034;-64
2022/04/30 02:15:24;;;;;;;5.00;4.35;;;;;;;;;;5034155;28;20144;-63
2022/04/30 02:17:59;;;;;;;5.20;4.70;;;;;;;;;;5038258;28;20076;-63
2022/04/30 02:20:29;;;;;;;;;;;;;;;;;;5032245;28;20120;-62
2022/04/30 02:23:04;;;;;;;8.63;5.90;;;;;;;;;;5048968;28;19921;-63
2022/04/30 02:25:33;;;;;;;6.28;5.15;;;;;;;;;;5034626;28;20111;-63
2022/04/30 02:28:08;;;;;;;5.85;5.35;;;;;;;;;;5030581;28;20080;-63
2022/04/30 02:30:38;;;;;;;;;;;;;;;;;;5035340;28;20095;-63
2022/04/30 02:33:11;;;;;;;6.97;6.20;;;;;;;;;;5028265;28;20311;-63
2022/04/30 02:35:44;;;;;;;5.68;5.07;;;;;;;;;;5034963;28;20140;-63
2022/04/30 02:38:13;;;;;;;8.32;6.88;;;;;;;;;;5034278;28;20081;-63
2022/04/30 02:40:42;;;;;;;7.05;6.32;;;;;;;;;;5034707;28;20045;-63
2022/04/30 02:43:15;;;;;;;6.78;6.10;;;;;;;;;;5034464;28;20453;-63
2022/04/30 02:45:44;;;;;;;7.90;5.88;;;;;;;;;;5034517;28;20050;-63
2022/04/30 02:48:13;;;;;;;6.25;5.55;;;;;;;;;;5033914;28;20039;-63
2022/04/30 02:50:42;;;;;;;7.53;6.25;;;;;;;;;;5034469;28;20405;-63
2022/04/30 02:53:10;;;;;;;5.70;4.85;;;;;;;;;;5034729;28;20049;-63
2022/04/30 02:55:38;;;;;;;8.55;5.68;;;;;;;;;;5034170;28;20053;-65
2022/04/30 03:00:54;;;;;;;7.80;6.35;;;;;;;;;;5034285;28;20045;-65
2022/04/30 03:03:48;;;;;;;6.55;5.68;;;;;;;;;;5027342;28;20108;-65
2022/04/30 03:06:19;;;;;;;6.55;5.93;;;;;;;;;;5034212;28;20048;-65
2022/04/30 03:08:48;;;;;;;12.35;6.20;;;;;;;;;;5034274;28;20424;-65
2022/04/30 03:11:19;;;;;;;6.47;5.88;;;;;;;;;;5049221;28;20404;-65
2022/04/30 03:13:47;;;;;;;6.95;6.25;;;;;;;;;;5034207;28;20055;-65
2022/04/30 03:21:51;;;;;;;10.43;6.60;;;;;;;;;;5033600;28;20072;-64
2022/04/30 03:24:19;;;;;;;9.65;6.28;;;;;;;;;;5034265;28;20500;-64
2022/04/30 03:26:48;;;;;;;11.40;6.70;;;;;;;;;;5033791;28;20046;-64
2022/04/30 03:29:19;;;;;;;11.43;6.80;;;;;;;;;;5033838;28;20041;-64
2022/04/30 03:31:49;;;;;;;6.97;6.30;;;;;;;;;;5033042;28;20704;-64
2022/04/30 03:34:17;;;;;;;7.55;6.70;;;;;;;;;;5033579;28;20488;-64
2022/04/30 03:36:46;;;;;;;7.25;6.55;;;;;;;;;;5033675;28;20413;-64
2022/04/30 03:39:16;;;;;;;12.05;6.93;;;;;;;;;;5033530;28;20132;-64
2022/04/30 03:41:45;;;;;;;7.70;5.65;;;;;;;;;;5033959;28;20053;-65
2022/04/30 03:44:15;;;;;;;8.57;6.10;;;;;;;;;;5033430;28;20057;-65
2022/04/30 03:46:44;;;;;;;10.30;6.82;;;;;;;;;;5052598;28;20077;-65
2022/04/30 03:49:12;;;;;;;6.68;5.88;;;;;;;;;;5053051;28;20045;-65
2022/04/30 03:51:40;;;;;;;8.43;6.50;;;;;;;;;;5027078;28;20409;-65
2022/04/30 03:54:09;;;;;;;8.35;6.32;;;;;;;;;;5027705;28;20055;-65
2022/04/30 03:56:38;;;;;;;6.60;6.00;;;;;;;;;;5033490;28;20049;-65
2022/04/30 03:59:08;;;;;;;9.30;5.88;;;;;;;;;;5033746;28;20059;-65
2022/04/30 04:01:40;;;;;;;7.05;5.72;;;;;;;;;;5033204;28;20037;-63
2022/04/30 04:04:10;;;;;;;17.92;6.78;;;;;;;;;;5032796;28;20094;-64
2022/04/30 04:06:37;;;;;;;7.15;6.47;;;;;;;;;;5031971;28;20060;-63
2022/04/30 04:09:05;;;;;;;10.05;6.55;;;;;;;;;;5033708;28;20045;-63
2022/04/30 04:11:33;;;;;;;8.43;6.53;;;;;;;;;;5033722;28;20052;-63
2022/04/30 04:19:36;;;;;;;6.80;6.20;;;;;;;;;;5033444;28;20064;-64
2022/04/30 04:22:05;;;;;;;7.13;6.45;;;;;;;;;;5033251;28;20076;-63
2022/04/30 04:27:19;;;;;;;7.70;6.82;;;;;;;;;;5033350;28;20405;-64
2022/04/30 04:29:48;;;;;;;8.75;7.85;;;;;;;;;;5032886;28;20053;-64
2022/04/30 04:32:16;;;;;;;9.45;8.40;;;;;;;;;;5033445;28;20050;-64
2022/04/30 04:34:44;;;;;;;7.45;6.75;;;;;;;;;;5032884;28;20160;-64
2022/04/30 04:37:18;;;;;;;12.23;9.15;;;;;;;;;;5033105;28;20061;-64
2022/04/30 04:39:46;;;;;;;12.68;7.13;;;;;;;;;;5030418;28;20088;-64
2022/04/30 04:42:15;;;;;;;7.97;7.20;;;;;;;;;;5044638;28;20423;-64
2022/04/30 04:44:43;;;;;;;8.93;6.50;;;;;;;;;;5052604;28;20049;-64
2022/04/30 04:47:13;;;;;;;11.13;7.15;;;;;;;;;;5052054;28;20077;-64
2022/04/30 04:49:43;;;;;;;10.30;6.38;;;;;;;;;;5052038;28;20052;-64
2022/04/30 04:52:11;;;;;;;13.38;6.20;;;;;;;;;;5051747;28;20055;-64
2022/04/30 04:54:40;;;;;;;10.02;6.82;;;;;;;;;;5052223;28;20049;-63
2022/04/30 04:57:09;;;;;;;11.75;8.90;;;;;;;;;;5028287;28;20516;-63
2022/04/30 04:59:38;;;;;;;9.13;7.72;;;;;;;;;;5032067;28;20058;-64
2022/04/30 05:02:10;;;;;;;9.75;7.35;;;;;;;;;;5039273;28;20059;-64
2022/04/30 05:04:39;;;;;;;14.00;7.10;;;;;;;;;;5029150;28;20053;-64
2022/04/30 05:07:09;;;;;;;8.23;7.25;;;;;;;;;;5026193;28;20543;-64
2022/04/30 05:09:37;;;;;;;11.25;7.35;;;;;;;;;;5034312;28;20049;-65
2022/04/30 05:12:08;;;;;;;8.63;7.03;;;;;;;;;;5033516;28;20081;-65
2022/04/30 05:14:37;;;;;;;8.85;6.93;;;;;;;;;;5033136;28;20132;-65
2022/04/30 05:17:07;;;;;;;11.90;7.32;;;;;;;;;;5035613;28;20554;-65
2022/04/30 05:19:35;;;;;;;7.25;6.55;;;;;;;;;;5033700;28;20072;-64
2022/04/30 05:22:04;;;;;;;14.10;6.93;;;;;;;;;;5034918;28;20053;-64
2022/04/30 05:24:33;;;;;;;17.08;7.60;;;;;;;;;;5030497;28;20083;-64
2022/04/30 05:27:02;;;;;;;10.05;6.60;;;;;;;;;;5034529;28;20044;-64
2022/04/30 05:29:29;;;;;;;7.93;6.75;;;;;;;;;;5035154;28;20132;-64
2022/04/30 05:31:58;;;;;;;9.60;7.30;;;;;;;;;;5034470;28;20133;-63
2022/04/30 05:34:30;;;;;;;9.65;7.45;;;;;;;;;;5033244;28;20038;-63
2022/04/30 05:36:59;;;;;;;8.30;6.55;;;;;;;;;;5036637;28;20049;-64
2022/04/30 05:39:27;;;;;;;11.82;8.07;;;;;;;;;;5031976;28;20046;-64
2022/04/30 05:41:56;;;;;;;9.02;7.50;;;;;;;;;;5035240;28;20103;-64
2022/04/30 05:44:24;;;;;;;9.77;7.50;;;;;;;;;;5034093;28;20570;-64
2022/04/30 05:46:53;;;;;;;13.02;7.35;;;;;;;;;;5036112;28;20049;-65
2022/04/30 05:49:21;;;;;;;10.75;7.97;;;;;;;;;;5026536;28;20077;-63
2022/04/30 05:51:49;;;;;;;9.57;7.43;;;;;;;;;;5029112;28;20060;-63
2022/04/30 05:54:19;;;;;;;8.90;8.00;;;;;;;;;;5036033;28;20076;-64
2022/04/30 05:56:48;;;;;;;9.40;7.70;;;;;;;;;;5043704;28;20053;-64
2022/04/30 05:59:18;;;;;;;8.32;7.45;;;;;;;;;;5027948;28;20054;-64
2022/04/30 06:01:46;;;;;;;13.38;7.72;;;;;;;;;;5031828;28;20041;-63
2022/04/30 06:04:15;;;;;;;10.40;8.02;;;;;;;;;;5034405;28;20072;-64
2022/04/30 06:06:44;;;;;;;9.60;7.88;;;;;;;;;;5034755;28;20049;-64
2022/04/30 06:09:12;;;;;;;10.80;8.73;;;;;;;;;;5031047;28;20432;-64
2022/04/30 06:11:41;;;;;;;14.20;9.70;;;;;;;;;;5032131;28;20416;-64
2022/04/30 06:14:12;;;;;;;17.60;9.20;;;;;;;;;;5034219;28;20052;-64
2022/04/30 06:16:40;;;;;;;12.23;9.88;;;;;;;;;;5033214;28;20124;-65
2022/04/30 06:19:08;;;;;;;11.52;9.40;;;;;;;;;;5035502;28;20401;-64
2022/04/30 06:21:40;;;;;;;11.60;8.50;;;;;;;;;;5026817;28;20493;-64
2022/04/30 06:24:10;;;;;;;10.98;7.85;;;;;;;;;;5033253;28;20045;-65
2022/04/30 06:26:43;;;;;;;11.93;9.02;;;;;;;;;;5028314;28;20046;-62
2022/04/30 06:29:11;;;;;;;11.90;7.25;;;;;;;;;;5035855;28;20047;-63
2022/04/30 06:31:40;;;;;;;10.40;8.43;;;;;;;;;;5030286;28;20121;-62
2022/04/30 06:34:08;;;;;;;16.13;9.93;;;;;;;;;;5029827;28;20053;-62
2022/04/30 06:36:36;;;;;;;8.88;7.97;;;;;;;;;;5031560;28;20136;-62
2022/04/30 06:39:04;;;;;;;11.43;10.20;;;;;;;;;;5029775;28;20056;-66
2022/04/30 06:43:55;;;;;;;12.65;10.27;;;;;;;;;;5042487;27;20447;-66
2022/04/30 06:46:23;;;;;;;14.95;11.05;;;;;;;;;;5030145;28;20088;-66
2022/04/30 06:48:53;;;;;;;21.88;11.77;;;;;;;;;;5024141;28;20450;-66
2022/04/30 06:51:23;;;;;;;19.92;11.23;;;;;;;;;;5024456;28;20045;-67
2022/04/30 06:59:46;;;;;;;13.38;10.02;;;;;;;;;;5044608;28;20041;-68
2022/04/30 07:02:18;;;;;;;12.70;11.32;;;;;;;;;;5026858;28;20060;-67
2022/04/30 07:04:49;;;;;;;16.65;10.75;;;;;;;;;;5024173;28;20060;-67
2022/04/30 07:07:19;;;;;;;13.55;11.95;;;;;;;;;;5024576;28;20041;-68
2022/04/30 07:09:48;;;;;;;12.50;11.30;;;;;;;;;;5024079;28;20054;-68
2022/04/30 07:12:17;;;;;;;16.27;13.02;;;;;;;;;;5023707;28;20038;-67
2022/04/30 07:14:48;;;;;;;14.73;12.25;;;;;;;;;;5093523;28;20058;-67
2022/04/30 07:17:17;;;;;;;16.35;12.90;;;;;;;;;;5021987;28;20050;-68
2022/04/30 07:19:47;;;;;;;13.60;12.20;;;;;;;;;;5020081;28;20046;-69
2022/04/30 07:22:15;;;;;;;17.67;10.50;;;;;;;;;;5018162;28;20049;-68
2022/04/30 07:25:05;;;;;;;11.55;10.43;;;;;;;;;;5025475;28;20158;-68
2022/04/30 07:27:33;;;;;;;15.38;9.50;;;;;;;;;;5025467;28;20050;-67
2022/04/30 07:30:22;;;;;;;14.05;10.70;;;;;;;;;;5025990;28;20056;-70
2022/04/30 07:33:10;;;;;;;13.70;11.23;;;;;;;;;;5025457;28;20236;-69
2022/04/30 07:36:01;;;;;;;18.88;9.38;;;;;;;;;;5024428;28;20042;-65
2022/04/30 07:38:30;;;;;;;10.25;8.13;;;;;;;;;;5030471;28;20037;-68
2022/04/30 07:40:59;;;;;;;15.15;7.25;;;;;;;;;;5029512;28;20057;-69
2022/04/30 07:43:27;;;;;;;13.07;7.80;;;;;;;;;;5030221;28;20046;-69
2022/04/30 07:45:55;;;;;;;17.67;10.32;;;;;;;;;;5027366;28;20114;-69
2022/04/30 07:48:23;;;;;;;11.98;7.78;;;;;;;;;;5027797;28;20053;-68
2022/04/30 07:50:57;;;;;;;11.43;7.88;;;;;;;;;;5027270;28;20057;-68
2022/04/30 07:53:25;;;;;;;10.80;7.88;;;;;;;;;;5026959;28;20046;-68
2022/04/30 07:55:54;;;;;;;11.60;7.18;;;;;;;;;;5013907;28;20054;-67
2022/04/30 07:58:24;;;;;;;9.45;7.00;;;;;;;;;;5087019;28;20395;-69
2022/04/30 08:00:53;;;;;;;20.38;8.30;;;;;;;;;;5017495;28;20042;-70
2022/04/30 08:03:22;;;;;;;10.70;8.80;;;;;;;;;;5074795;28;20062;-70
2022/04/30 08:05:51;;;;;;;8.88;7.72;;;;;;;;;;5017070;28;20153;-67
2022/04/30 08:08:19;;;;;;;9.60;7.20;;;;;;;;;;5012934;28;20045;-69
2022/04/30 08:10:48;;;;;;;9.60;6.72;;;;;;;;;;5013248;28;20049;-71
2022/04/30 08:13:17;;;;;;;10.45;7.70;;;;;;;;;;5010762;28;20389;-71
2022/04/30 08:15:46;;;;;;;7.45;6.75;;;;;;;;;;5073979;28;20131;-68
2022/04/30 08:18:15;;;;;;;8.30;5.93;;;;;;;;;;5010987;28;20076;-69
2022/04/30 08:20:46;;;;;;;7.07;5.35;;;;;;;;;;5015231;28;20081;-68
2022/04/30 08:23:16;;;;;;;7.40;5.07;;;;;;;;;;5016689;28;20049;-68
2022/04/30 08:25:44;;;;;;;9.80;7.50;;;;;;;;;;5012469;28;20551;-68
2022/04/30 08:28:13;;;;;;;12.10;6.97;;;;;;;;;;5015836;28;20453;-68
2022/04/30 08:30:42;;;;;;;12.10;7.35;;;;;;;;;;5014422;28;20136;-68
2022/04/30 08:33:10;;;;;;;11.60;6.97;;;;;;;;;;5013217;28;20091;-68
2022/04/30 08:35:39;;;;;;;10.40;7.00;;;;;;;;;;5015239;28;20069;-68
2022/04/30 08:38:09;;;;;;;7.07;5.78;;;;;;;;;;5013380;28;20077;-68
2022/04/30 08:40:38;;;;;;;13.63;6.53;;;;;;;;;;5012741;28;20068;-66
2022/04/30 08:43:10;;;;;;;13.95;8.00;;;;;;;;;;5014078;28;20038;-65
2022/04/30 08:45:40;;;;;;;7.80;6.38;;;;;;;;;;5070338;28;20066;-67
2022/04/30 08:48:13;;;;;;;8.52;6.03;;;;;;;;;;5012461;28;20523;-65
2022/04/30 08:50:43;;;;;;;8.90;6.68;;;;;;;;;;5088702;28;20080;-68
2022/04/30 08:53:12;;;;;;;13.77;6.13;;;;;;;;;;5015266;28;20060;-69
2022/04/30 08:55:41;;;;;;;8.93;5.68;;;;;;;;;;5011863;28;20437;-70
2022/04/30 08:58:10;;;;;;;6.32;5.00;;;;;;;;;;5010965;28;20049;-68
2022/04/30 09:00:47;;;;;;;10.45;5.05;;;;;;;;;;5011885;28;20054;-69
2022/04/30 09:03:17;;;;;;;7.05;4.70;;;;;;;;;;5016218;28;20167;-69
2022/04/30 09:05:48;;;;;;;6.88;4.32;;;;;;;;;;5015548;28;20054;-70
2022/04/30 09:08:16;;;;;;;5.28;4.05;;;;;;;;;;5011162;28;20121;-70
2022/04/30 09:10:45;;;;;;;5.18;4.30;;;;;;;;;;5014751;28;20060;-69
2022/04/30 09:13:16;;;;;;;9.52;4.82;;;;;;;;;;5002061;28;20456;-68
2022/04/30 09:15:48;;;;;;;5.68;4.85;;;;;;;;;;5009696;28;20053;-68
2022/04/30 09:18:17;;;;;;;6.70;4.68;;;;;;;;;;5014483;28;20093;-68
2022/04/30 09:20:50;;;;;;;7.63;4.45;;;;;;;;;;5075706;28;20467;-67
2022/04/30 09:23:31;;;;;;;5.68;4.35;;;;;;;;;;5012668;28;20046;-67
2022/04/30 09:26:03;;;;;;;5.30;3.60;;;;;;;;;;5016569;28;20058;-68
2022/04/30 09:28:38;;;;;;;6.10;4.20;;;;;;;;;;5010170;28;20099;-69
2022/04/30 09:31:21;;;;;;;11.35;3.60;;;;;;;;;;5015259;28;20061;-68
2022/04/30 09:33:50;;;;;;;5.00;3.55;;;;;;;;;;5013191;28;20499;-67
2022/04/30 09:39:17;;;;;;;7.68;4.07;;;;;;;;;;5008384;28;20042;-70
2022/04/30 09:41:47;;;;;;;5.68;3.60;;;;;;;;;;5012272;28;20057;-68
2022/04/30 09:44:22;;;;;;;11.45;3.65;;;;;;;;;;5013406;28;20076;-68
2022/04/30 09:46:49;;;;;;;5.63;4.00;;;;;;;;;;5014855;28;20114;-68
2022/04/30 09:54:52;;;;;;;6.10;3.97;;;;;;;;;;5009950;28;20639;-68
2022/04/30 09:57:22;;;;;;;6.43;3.88;;;;;;;;;;5008668;28;20057;-68
2022/04/30 09:59:57;;;;;;;6.57;4.40;;;;;;;;;;5076212;28;20054;-68
2022/04/30 10:02:25;;;;;;;5.70;3.85;;;;;;;;;;5009480;28;20057;-69
2022/04/30 10:04:53;;;;;;;6.22;4.55;;;;;;;;;;5076437;28;20057;-69
2022/04/30 10:07:24;;;;;;;4.93;4.13;;;;;;;;;;5009946;28;20165;-70
2022/04/30 10:10:14;;;;;;;7.22;3.75;;;;;;;;;;5010109;28;20054;-71
2022/04/30 10:12:58;;;;;;;4.85;4.13;;;;;;;;;;5009923;28;20041;-71
2022/04/30 10:15:50;;;;;;;6.32;4.47;;;;;;;;;;5071405;28;20125;-71
2022/04/30 10:18:20;;;;;;;8.48;5.28;;;;;;;;;;5009461;28;20062;-71
2022/04/30 10:20:56;;;;;;;6.50;4.22;;;;;;;;;;5010315;28;20484;-71
2022/04/30 10:23:24;;;;;;;3.70;3.40;;;;;;;;;;5010075;28;20107;-72
2022/04/30 10:25:54;;;;;;;5.90;3.63;;;;;;;;;;5010698;28;20061;-72
2022/04/30 10:28:25;;;;;;;6.27;5.07;;;;;;;;;;5009632;28;20141;-71
2022/04/30 10:31:05;;;;;;;4.63;3.90;;;;;;;;;;5005030;28;20368;-72
2022/04/30 10:33:35;;;;;;;9.60;4.00;;;;;;;;;;5010046;28;20058;-72
2022/04/30 10:36:08;;;;;;;5.72;3.72;;;;;;;;;;5009773;28;20145;-70
2022/04/30 10:38:36;;;;;;;6.00;3.67;;;;;;;;;;5017823;28;20498;-73
2022/04/30 10:41:08;;;;;;;5.65;3.30;;;;;;;;;;5010746;28;20129;-73
2022/04/30 10:43:37;;;;;;;4.72;4.22;;;;;;;;;;5014359;28;20492;-78
2022/04/30 10:46:19;;;;;;;3.90;3.47;;;;;;;;;;5006804;28;20057;-74
2022/04/30 10:48:48;;;;;;;4.53;3.97;;;;;;;;;;5011467;28;20130;-77
2022/04/30 10:51:51;;;;;;;3.58;3.03;;;;;;;;;;5011320;28;20056;-80
2022/04/30 10:54:19;;;;;;;5.22;4.63;;;;;;;;;;5012650;28;20455;-80
2022/04/30 10:56:59;;;;;;;6.22;4.03;;;;;;;;;;5015472;28;20141;-79
2022/04/30 10:59:28;;;;;;;4.88;4.32;;;;;;;;;;5012779;28;20049;-77
2022/04/30 11:01:56;;;;;;;3.35;3.00;;;;;;;;;;5013529;28;20112;-79
2022/04/30 11:04:25;;;;;;;5.82;3.15;;;;;;;;;;5011053;28;20053;-83
2022/04/30 11:06:56;;;;;;;4.68;3.83;;;;;;;;;;5010189;28;20511;-71
2022/04/30 11:09:24;;;;;;;8.75;3.10;;;;;;;;;;5014729;28;20046;-74
2022/04/30 11:11:53;;;;;;;4.03;3.63;;;;;;;;;;5013367;28;20053;-79
2022/04/30 11:14:23;;;;;;;4.18;3.50;;;;;;;;;;5012589;28;20058;-79
2022/04/30 11:16:51;;;;;;;6.13;4.13;;;;;;;;;;5013135;28;20077;-69
2022/04/30 11:19:23;;;;;;;4.05;3.65;;;;;;;;;;5013883;28;20042;-68
2022/04/30 11:21:53;;;;;;;7.07;3.85;;;;;;;;;;5015905;28;20451;-69
2022/04/30 11:24:28;;;;;;;4.35;3.65;;;;;;;;;;5010896;28;20096;-69
2022/04/30 11:27:05;;;;;;;4.90;3.55;;;;;;;;;;5012743;28;20569;-69
2022/04/30 11:29:36;;;;;;;5.47;4.47;;;;;;;;;;5015945;28;20049;-71
2022/04/30 11:32:06;;;;;;;4.93;3.47;;;;;;;;;;5015567;28;20063;-69
2022/04/30 11:34:34;;;;;;;4.43;4.03;;;;;;;;;;5014314;28;20081;-69
2022/04/30 11:37:02;;;;;;;4.20;3.28;;;;;;;;;;5011702;28;20049;-69
2022/04/30 11:39:30;;;;;;;4.82;3.45;;;;;;;;;;5015868;28;20046;-70
2022/04/30 11:42:00;;;;;;;5.63;3.40;;;;;;;;;;5014669;28;20468;-68
2022/04/30 11:44:28;;;;;;;4.05;3.22;;;;;;;;;;5011028;28;20066;-69
2022/04/30 11:46:56;;;;;;;4.50;3.88;;;;;;;;;;5013335;28;20446;-70
2022/04/30 11:49:25;;;;;;;4.10;3.70;;;;;;;;;;5015496;28;20060;-70
2022/04/30 11:52:09;;;;;;;5.38;4.05;;;;;;;;;;5016931;28;20077;-70
2022/04/30 11:54:41;;;;;;;5.63;4.05;;;;;;;;;;5079636;28;20045;-69
2022/04/30 11:57:09;;;;;;;6.03;3.60;;;;;;;;;;5082283;28;20412;-70
2022/04/30 11:59:40;;;;;;;5.75;3.67;;;;;;;;;;5011852;28;20053;-68
2022/04/30 12:02:12;;;;;;;8.55;4.22;;;;;;;;;;5010017;28;20046;-65
2022/04/30 12:04:41;;;;;;;5.63;3.75;;;;;;;;;;5013372;28;20125;-69
2022/04/30 12:07:12;;;;;;;8.00;4.03;;;;;;;;;;5014581;28;20080;-68
2022/04/30 12:09:50;;;;;;;4.88;3.75;;;;;;;;;;5010419;28;20045;-69
2022/04/30 12:12:22;;;;;;;5.70;3.53;;;;;;;;;;5016607;28;20129;-69
2022/04/30 12:14:52;;;;;;;18.33;4.32;;;;;;;;;;5016174;28;20174;-68
2022/04/30 12:24:40;;;;;;;4.00;3.50;;;;;;;;;;5014698;28;20053;-68
2022/04/30 12:26:13;;;;;;;6.10;3.67;;;;;;;;;;5009366;28;20407;-70
2022/04/30 12:28:42;;;;;;;8.18;4.10;;;;;;;;;;5012126;28;20095;-70
2022/04/30 12:31:11;;;;;;;5.28;3.72;;;;;;;;;;5011769;28;20048;-70
2022/04/30 12:33:45;;;;;;;4.57;4.07;;;;;;;;;;5012377;28;20128;-70
2022/04/30 12:36:15;;;;;;;4.20;3.33;;;;;;;;;;5012029;28;20088;-69
2022/04/30 12:39:18;;;;;;;4.80;4.25;;;;;;;;;;5011386;28;20106;-70
2022/04/30 12:41:48;;;;;;;4.45;3.17;;;;;;;;;;5010216;28;20056;-68
2022/04/30 12:44:16;;;;;;;4.40;3.20;;;;;;;;;;5010907;28;20050;-69
2022/04/30 12:46:46;;;;;;;5.88;3.90;;;;;;;;;;5014747;28;20042;-68
2022/04/30 12:49:17;;;;;;;4.40;3.45;;;;;;;;;;5014280;28;20074;-68
2022/04/30 12:51:49;;;;;;;7.55;4.18;;;;;;;;;;5013562;28;20049;-68
2022/04/30 12:54:17;;;;;;;5.22;2.88;;;;;;;;;;5012257;28;20129;-67
2022/04/30 12:56:46;;;;;;;4.68;3.95;;;;;;;;;;5014517;28;20038;-67
2022/04/30 12:59:16;;;;;;;6.55;4.07;;;;;;;;;;5013446;28;20042;-69
2022/04/30 13:01:45;;;;;;;4.07;2.95;;;;;;;;;;5014199;28;20102;-69
2022/04/30 13:04:14;;;;;;;4.63;3.85;;;;;;;;;;5011188;28;20056;-68
2022/04/30 13:06:41;;;;;;;4.43;3.22;;;;;;;;;;5013937;28;20492;-69
2022/04/30 13:14:43;;;;;;;7.85;3.17;;;;;;;;;;5010895;28;20552;-68
2022/04/30 13:17:12;;;;;;;5.75;3.50;;;;;;;;;;5011112;28;20042;-68
2022/04/30 13:19:44;;;;;;;3.58;3.20;;;;;;;;;;5011664;28;20042;-66
2022/04/30 13:22:14;;;;;;;3.88;3.22;;;;;;;;;;5011191;28;20058;-68
2022/04/30 13:24:42;;;;;;;5.63;3.35;;;;;;;;;;5011219;28;20092;-68
2022/04/30 13:27:11;;;;;;;6.22;3.17;;;;;;;;;;5010853;28;20080;-68
2022/04/30 13:29:41;;;;;;;8.38;4.05;;;;;;;;;;5011385;28;20364;-68
2022/04/30 13:32:10;;;;;;;5.70;3.20;;;;;;;;;;5011089;28;20099;-68
2022/04/30 13:34:40;;;;;;;4.35;3.38;;;;;;;;;;5010651;28;20045;-67
2022/04/30 13:37:09;;;;;;;5.75;3.03;;;;;;;;;;5010530;28;20046;-68
2022/04/30 13:39:38;;;;;;;6.03;3.47;;;;;;;;;;5009398;28;20519;-68
2022/04/30 13:42:08;;;;;;;5.10;3.13;;;;;;;;;;5010200;28;20118;-67
2022/04/30 13:44:37;;;;;;;8.35;3.40;;;;;;;;;;5009661;28;20746;-68
2022/04/30 13:47:06;;;;;;;3.78;2.97;;;;;;;;;;5010581;28;20390;-68
2022/04/30 13:49:35;;;;;;;5.13;3.70;;;;;;;;;;5010028;28;20133;-68
2022/04/30 13:52:05;;;;;;;3.63;2.78;;;;;;;;;;5009121;28;20067;-66
2022/04/30 13:54:38;;;;;;;5.15;3.05;;;;;;;;;;5011603;28;20099;-68
2022/04/30 13:57:07;;;;;;;7.43;3.47;;;;;;;;;;5015211;28;20057;-68
2022/04/30 13:59:35;;;;;;;5.18;3.35;;;;;;;;;;5014089;28;20072;-70
2022/04/30 14:02:04;;;;;;;3.80;3.08;;;;;;;;;;5013147;28;20038;-69
2022/04/30 14:04:34;;;;;;;5.93;3.72;;;;;;;;;;5011394;28;20120;-69
2022/04/30 14:07:02;;;;;;;4.30;3.17;;;;;;;;;;5009556;28;20111;-68
2022/04/30 14:09:32;;;;;;;6.45;4.13;;;;;;;;;;5011820;28;20491;-68
2022/04/30 14:12:00;;;;;;;3.75;3.38;;;;;;;;;;5014767;28;20073;-68
2022/04/30 14:20:03;;;;;;;4.85;4.18;;;;;;;;;;5013289;28;20560;-68
2022/04/30 14:22:35;;;;;;;6.90;3.78;;;;;;;;;;5013912;28;20057;-68
2022/04/30 14:25:06;;;;;;;4.53;3.63;;;;;;;;;;5014220;28;20149;-68
2022/04/30 14:27:37;;;;;;;8.70;4.65;;;;;;;;;;5013494;28;20425;-67
2022/04/30 14:30:10;;;;;;;5.60;3.90;;;;;;;;;;5013498;28;20592;-67
2022/04/30 14:32:38;;;;;;;5.25;3.90;;;;;;;;;;5010866;28;20492;-68
2022/04/30 14:35:08;;;;;;;4.45;4.05;;;;;;;;;;5013978;28;20133;-68
2022/04/30 14:37:37;;;;;;;4.70;4.20;;;;;;;;;;5012870;28;20049;-68
2022/04/30 14:40:09;;;;;;;5.53;4.70;;;;;;;;;;5013417;28;20065;-69
2022/04/30 14:42:38;;;;;;;8.05;4.53;;;;;;;;;;5014778;28;20057;-68
2022/04/30 14:45:08;;;;;;;5.70;4.13;;;;;;;;;;5013341;28;20101;-68
2022/04/30 14:47:38;;;;;;;7.30;3.45;;;;;;;;;;5011488;28;20053;-68
2022/04/30 14:50:08;;;;;;;3.80;3.50;;;;;;;;;;5011138;28;20086;-68
2022/04/30 14:52:37;;;;;;;12.13;5.60;;;;;;;;;;5010571;28;20049;-68
2022/04/30 14:55:07;;;;;;;5.10;4.03;;;;;;;;;;5073902;28;20450;-68
2022/04/30 14:57:37;;;;;;;6.78;4.22;;;;;;;;;;5013843;28;20058;-71
2022/04/30 15:00:06;;;;;;;4.38;3.88;;;;;;;;;;5009588;28;20606;-71
2022/04/30 15:02:36;;;;;;;3.95;3.50;;;;;;;;;;5012142;28;20600;-73
2022/04/30 15:05:07;;;;;;;9.32;3.47;;;;;;;;;;5017816;28;20412;-72
2022/04/30 15:07:36;;;;;;;6.55;4.40;;;;;;;;;;5016573;28;20073;-71
2022/04/30 15:10:07;;;;;;;4.65;3.75;;;;;;;;;;5013157;28;20072;-70
2022/04/30 15:12:36;;;;;;;4.68;4.28;;;;;;;;;;5015564;28;20046;-70
2022/04/30 15:15:05;;;;;;;8.35;4.78;;;;;;;;;;5017341;28;20053;-70
2022/04/30 15:17:33;;;;;;;9.73;4.40;;;;;;;;;;5014884;28;20137;-70
2022/04/30 15:20:03;;;;;;;5.47;4.00;;;;;;;;;;5013392;28;20497;-70
2022/04/30 15:22:32;;;;;;;3.45;3.15;;;;;;;;;;5014173;28;20550;-70
2022/04/30 15:25:02;;;;;;;4.88;4.30;;;;;;;;;;5014518;28;20117;-71
2022/04/30 15:27:31;;;;;;;4.88;3.90;;;;;;;;;;5015389;28;20099;-71
2022/04/30 15:30:00;;;;;;;9.68;3.75;;;;;;;;;;5016492;28;20038;-71
2022/04/30 15:32:28;;;;;;;6.68;4.25;;;;;;;;;;5006542;28;20132;-71
2022/04/30 15:34:58;;;;;;;7.68;5.20;;;;;;;;;;5017439;28;20046;-71
2022/04/30 15:37:26;;;;;;;4.63;4.22;;;;;;;;;;5015531;28;20050;-71
2022/04/30 15:39:55;;;;;;;5.07;4.07;;;;;;;;;;5016967;28;20108;-71
2022/04/30 15:42:26;;;;;;;5.85;4.50;;;;;;;;;;5015048;28;20042;-71
2022/04/30 15:44:54;;;;;;;5.00;4.38;;;;;;;;;;5015159;28;20090;-71
2022/04/30 15:53:07;;;;;;;9.05;4.43;;;;;;;;;;5013579;28;20046;-71
2022/04/30 15:55:36;;;;;;;6.82;5.13;;;;;;;;;;5014525;28;20145;-72
2022/04/30 15:58:05;;;;;;;6.15;4.93;;;;;;;;;;5014163;28;20520;-71
2022/04/30 16:00:33;;;;;;;5.38;4.50;;;;;;;;;;5012952;28;20058;-72
2022/04/30 16:03:01;;;;;;;6.53;4.22;;;;;;;;;;5011984;28;20066;-69
2022/04/30 16:05:30;;;;;;;4.53;4.13;;;;;;;;;;5012969;28;20137;-71